CYYU

Kapuskasing Airport

Kapuskasing, Ontario, Canada
TAF CYYU 161938Z 1620/1708 24010G20KT P6SM BKN060 TEMPO 1620/1702 P6SM -SHRA PROB30 1620/1623 2SM +TSRA BR BKN020CB FM170200 30008KT P6SM BKN060 FM170400 31008KT P6SM -SHRA BKN020 RMK NXT FCST BY 170200Z
Issued Valid From Valid To
Jul-16 @ 19:38 UTC
(30 minutes ago)
Jul-16 @ 20:00 UTC
(8 minutes ago)
Jul-17 @ 08:00 UTC
(in 12 hours)
Jul-16 @ 20:00 to Jul-17 @ 02:00
TAF CYYU 161938Z 1620/1708 24010G20KT P6SM BKN060
Wind Visibility Clouds
240° at 10 knots
 Gusting to 20 knots
Greater than 6 miles
  • Broken at 6,000' AGL
Probable  (Probability 30%) Jul-16 @ 20:00 to Jul-16 @ 23:00
PROB30 1620/1623 2SM +TSRA BR BKN020CB
Visibility Clouds Conditions
2 miles
  • Broken at 2,000' AGL
  • Heavy Thunderstorm
  • Heavy Rain
  • Mist
Temporary Jul-16 @ 20:00 to Jul-17 @ 02:00
TEMPO 1620/1702 P6SM -SHRA
Visibility Conditions
Greater than 6 miles
  • Light Rain
From Jul-17 @ 02:00 to Jul-17 @ 04:00
FM170200 30008KT P6SM BKN060
Wind Visibility Clouds
300° at 8 knots Greater than 6 miles
  • Broken at 6,000' AGL
From Jul-17 @ 04:00 to Jul-17 @ 08:00
FM170400 31008KT P6SM -SHRA BKN020 RMK NXT FCST BY 170200Z
Wind Visibility Clouds Conditions
310° at 8 knots Greater than 6 miles
  • Broken at 2,000' AGL
  • Light Rain
TAF CYYU 161938Z 1620/1708 24010G20KT P6SM BKN060 TEMPO 1620/1702 P6SM -SHRA PROB30 1620/1623 2SM +TSRA BR BKN020CB FM170200 30008KT P6SM BKN060 FM170400 31008KT P6SM -SHRA BKN020 RMK NXT FCST BY 170200Z
Issued Jul-16 @ 19:38 UTC
(30 minutes ago)
Valid From Jul-16 @ 20:00 UTC
(8 minutes ago)
Valid To Jul-17 @ 08:00 UTC
(in 12 hours)
Jul-16 @ 20:00 - Jul-17 @ 02:00
Wind Visibility
240° at 10 knots
 Gusting to 20 knots
Greater than 6 miles
Clouds
  • Broken at 6,000' AGL
Probability 30% Probable Jul-16 @ 20:00 - Jul-16 @ 23:00
Clouds
  • Broken at 2,000' AGL
Conditions
  • Heavy Thunderstorm
  • Heavy Rain
  • Mist
Temporary Jul-16 @ 20:00 - Jul-17 @ 02:00
Conditions
  • Light Rain
From Jul-17 @ 02:00 - Jul-17 @ 04:00
Wind Visibility
300° at 8 knots Greater than 6 miles
Clouds
  • Broken at 6,000' AGL
From Jul-17 @ 04:00 - Jul-17 @ 08:00
Wind Visibility
310° at 8 knots Greater than 6 miles
Clouds
  • Broken at 2,000' AGL
Conditions
  • Light Rain